createdAt,value
2019-03-29T00:04:47.518Z,14.30
2019-03-29T00:09:55.010Z,15.45
2019-03-29T00:15:02.425Z,13.75
2019-03-29T00:20:12.019Z,16.17
2019-03-29T00:25:19.381Z,14.83
2019-03-29T00:30:26.814Z,14.45
2019-03-29T00:35:34.457Z,13.78
2019-03-29T00:40:41.864Z,12.73
2019-03-29T00:45:49.294Z,12.35
2019-03-29T00:50:56.490Z,13.53
2019-03-29T00:56:03.919Z,12.70
2019-03-29T01:01:11.259Z,10.72
2019-03-29T01:06:19.163Z,14.75
2019-03-29T01:11:26.520Z,12.73
2019-03-29T01:16:33.790Z,13.68
2019-03-29T01:21:41.151Z,18.25
2019-03-29T01:26:48.578Z,12.73
2019-03-29T01:31:55.991Z,12.85
2019-03-29T01:37:03.336Z,11.45
2019-03-29T01:42:10.687Z,12.33
2019-03-29T01:47:18.042Z,14.15
2019-03-29T01:52:25.232Z,15.80
2019-03-29T01:57:32.897Z,17.60
2019-03-29T02:02:40.363Z,14.40
2019-03-29T02:07:47.790Z,15.10
2019-03-29T02:12:55.293Z,16.10
2019-03-29T02:18:02.823Z,14.13
2019-03-29T02:23:10.357Z,15.83
2019-03-29T02:28:18.886Z,14.47
2019-03-29T02:33:26.457Z,18.12
2019-03-29T02:38:33.804Z,16.15
2019-03-29T02:43:41.230Z,14.78
2019-03-29T02:48:48.488Z,15.98
2019-03-29T02:53:56.893Z,15.68
2019-03-29T02:59:04.166Z,17.35
2019-03-29T03:04:11.596Z,15.30
2019-03-29T03:09:19.011Z,17.30
2019-03-29T03:14:26.483Z,16.73
2019-03-29T03:19:33.909Z,17.50
2019-03-29T03:24:41.326Z,17.20
2019-03-29T03:29:48.833Z,22.58
2019-03-29T03:34:56.386Z,15.63
2019-03-29T03:40:03.810Z,15.18
2019-03-29T03:45:11.776Z,15.63
2019-03-29T03:50:42.881Z,15.80
2019-03-29T03:55:51.734Z,14.68
2019-03-29T04:01:00.170Z,14.83
2019-03-29T04:06:07.669Z,12.47
2019-03-29T04:11:15.127Z,12.98
2019-03-29T04:16:22.718Z,13.20
2019-03-29T04:21:30.286Z,14.35
2019-03-29T04:26:37.647Z,14.63
2019-03-29T04:31:44.998Z,12.65
2019-03-29T04:36:52.576Z,14.23
2019-03-29T04:41:59.960Z,12.20
2019-03-29T04:47:07.411Z,15.15
2019-03-29T04:52:15.750Z,15.08
2019-03-29T04:57:23.077Z,17.00
2019-03-29T05:02:30.345Z,18.02
2019-03-29T05:07:37.712Z,17.70
2019-03-29T05:12:45.148Z,16.00
2019-03-29T05:17:52.432Z,21.68
2019-03-29T05:22:59.856Z,21.82
2019-03-29T05:28:07.322Z,16.65
2019-03-29T05:33:14.874Z,18.62
2019-03-29T05:38:22.306Z,18.73
2019-03-29T05:43:29.490Z,18.00
2019-03-29T05:48:36.682Z,16.87
2019-03-29T05:53:43.958Z,21.10
2019-03-29T05:58:51.217Z,20.35
2019-03-29T06:03:58.683Z,20.77
2019-03-29T06:09:07.494Z,19.62
2019-03-29T06:14:14.948Z,20.20
2019-03-29T06:19:22.292Z,18.45
2019-03-29T06:24:29.564Z,20.10
2019-03-29T06:29:36.917Z,17.62
2019-03-29T06:34:44.349Z,36.77
2019-03-29T06:39:53.994Z,18.02
2019-03-29T06:45:01.359Z,17.30
2019-03-29T06:50:08.821Z,17.82
2019-03-29T06:55:16.252Z,20.60
2019-03-29T07:00:23.610Z,18.75
2019-03-29T07:05:31.339Z,17.23
2019-03-29T07:10:38.770Z,19.50
2019-03-29T07:15:46.240Z,16.35
2019-03-29T07:20:53.576Z,15.68
2019-03-29T07:26:01.003Z,14.20
2019-03-29T07:31:08.392Z,13.40
2019-03-29T07:36:17.319Z,13.75
2019-03-29T07:41:31.630Z,13.43
2019-03-29T07:46:33.826Z,11.38
2019-03-29T07:51:41.109Z,11.57
2019-03-29T07:56:48.479Z,11.85
2019-03-29T08:01:55.749Z,12.03
2019-03-29T08:07:03.120Z,12.37
2019-03-29T08:12:10.584Z,12.07
2019-03-29T08:17:17.965Z,9.75
2019-03-29T08:22:25.329Z,10.32
2019-03-29T08:27:32.992Z,10.25
2019-03-29T08:32:40.278Z,10.50
2019-03-29T08:37:47.642Z,17.07
2019-03-29T08:42:56.150Z,11.10
2019-03-29T08:48:06.500Z,10.38
2019-03-29T08:53:12.520Z,8.48
2019-03-29T08:58:19.872Z,8.93
2019-03-29T09:03:27.493Z,8.00
2019-03-29T09:08:34.856Z,7.58
2019-03-29T09:13:42.243Z,7.70
2019-03-29T09:18:49.690Z,8.90
2019-03-29T09:23:57.124Z,7.58
2019-03-29T09:29:04.568Z,8.58
2019-03-29T09:34:11.969Z,7.67
2019-03-29T09:39:19.538Z,7.72
2019-03-29T09:44:26.976Z,7.40
2019-03-29T09:49:34.268Z,6.15
2019-03-29T09:54:41.495Z,6.40
2019-03-29T09:59:48.784Z,5.65
2019-03-29T10:04:56.149Z,4.55
2019-03-29T10:10:03.910Z,5.75
2019-03-29T10:15:11.721Z,4.10
2019-03-29T10:20:19.185Z,4.20
2019-03-29T10:25:26.591Z,4.42
2019-03-29T10:30:46.341Z,4.00
2019-03-29T10:35:52.890Z,4.20
2019-03-29T10:41:00.831Z,3.77
2019-03-29T10:46:08.219Z,1.75
2019-03-29T10:51:15.527Z,2.52
2019-03-29T10:56:34.022Z,1.87
2019-03-29T11:01:32.156Z,1.12
2019-03-29T11:06:39.546Z,1.60
2019-03-29T11:11:47.033Z,1.27
2019-03-29T11:16:54.533Z,1.70
2019-03-29T11:22:02.854Z,1.40
2019-03-29T11:27:10.325Z,1.30
2019-03-29T11:32:17.868Z,1.50
2019-03-29T11:37:25.249Z,1.67
2019-03-29T11:42:32.711Z,1.77
2019-03-29T11:47:40.171Z,2.00
2019-03-29T11:52:47.674Z,4.55
2019-03-29T11:57:56.043Z,1.70
2019-03-29T12:03:03.527Z,1.50
2019-03-29T12:08:11.076Z,1.60
2019-03-29T12:13:18.402Z,1.90
2019-03-29T12:18:26.037Z,6.45
2019-03-29T12:23:33.585Z,2.05
2019-03-29T12:28:40.865Z,2.30
2019-03-29T12:33:48.170Z,2.37
2019-03-29T12:38:55.662Z,3.45
2019-03-29T12:44:03.196Z,2.08
2019-03-29T12:49:10.649Z,2.50
2019-03-29T12:54:18.712Z,2.17
2019-03-29T12:59:26.036Z,2.70
2019-03-29T13:04:33.568Z,3.10
2019-03-29T13:09:41.518Z,2.67
2019-03-29T13:14:48.967Z,2.40
2019-03-29T13:19:56.417Z,3.95
2019-03-29T13:25:07.106Z,2.30
2019-03-29T13:30:17.179Z,2.10
2019-03-29T13:35:23.723Z,2.25
2019-03-29T13:40:31.329Z,2.40
2019-03-29T13:45:38.753Z,2.80
2019-03-29T13:50:46.130Z,2.42
2019-03-29T13:55:56.522Z,2.50
2019-03-29T14:01:05.052Z,3.15
2019-03-29T14:06:12.612Z,2.37
2019-03-29T14:11:20.230Z,2.77
2019-03-29T14:16:27.676Z,2.70
2019-03-29T14:21:34.994Z,2.65
2019-03-29T14:26:42.354Z,2.30
2019-03-29T14:31:49.769Z,2.67
2019-03-29T14:36:59.365Z,2.35
2019-03-29T14:42:06.497Z,2.60
2019-03-29T14:47:14.012Z,2.60
2019-03-29T14:52:21.504Z,2.62
2019-03-29T14:57:29.009Z,2.65
2019-03-29T15:02:36.567Z,2.40
2019-03-29T15:07:44.938Z,2.50
2019-03-29T15:12:52.896Z,2.75
2019-03-29T15:18:00.372Z,2.52
2019-03-29T15:23:07.787Z,2.67
2019-03-29T15:28:15.297Z,2.58
2019-03-29T15:33:24.786Z,2.52
2019-03-29T15:38:32.117Z,2.58
2019-03-29T15:43:39.550Z,2.60
2019-03-29T15:48:47.054Z,2.37
2019-03-29T15:53:55.010Z,2.70
2019-03-29T15:59:02.566Z,2.37
2019-03-29T16:04:10.049Z,2.52
2019-03-29T16:09:17.713Z,2.70
2019-03-29T16:14:25.216Z,2.60
2019-03-29T16:19:32.561Z,2.80
2019-03-29T16:24:39.886Z,2.85
2019-03-29T16:29:47.340Z,2.98
2019-03-29T16:34:54.795Z,2.90
2019-03-29T16:40:02.243Z,3.80
2019-03-29T16:45:11.110Z,3.08
2019-03-29T16:50:18.598Z,3.08
2019-03-29T16:55:26.158Z,3.58
2019-03-29T17:00:33.876Z,3.60
2019-03-29T17:05:42.295Z,3.17
2019-03-29T17:10:49.701Z,3.35
2019-03-29T17:16:01.966Z,3.62
2019-03-29T17:21:08.861Z,3.87
2019-03-29T17:26:16.567Z,4.05
2019-03-29T17:31:23.965Z,3.30
2019-03-29T17:36:31.470Z,3.80
2019-03-29T17:41:38.837Z,2.92
2019-03-29T17:46:46.200Z,3.15
2019-03-29T17:51:53.660Z,3.00
2019-03-29T17:57:01.077Z,2.72
2019-03-29T18:02:09.947Z,3.15
2019-03-29T18:07:17.482Z,4.22
2019-03-29T18:12:24.829Z,4.40
2019-03-29T18:17:42.282Z,4.80
2019-03-29T18:22:52.783Z,4.30
2019-03-29T18:28:00.374Z,5.00
2019-03-29T18:33:08.494Z,4.47
2019-03-29T18:38:16.260Z,4.78
2019-03-29T18:43:26.997Z,4.62
2019-03-29T18:48:34.572Z,6.10
2019-03-29T18:53:41.985Z,8.73
2019-03-29T18:58:49.668Z,7.50
2019-03-29T19:03:57.244Z,6.92
2019-03-29T19:09:06.638Z,6.90
2019-03-29T19:14:14.157Z,6.33
2019-03-29T19:19:21.718Z,6.87
2019-03-29T19:24:32.288Z,7.03
2019-03-29T19:29:39.667Z,7.35
2019-03-29T19:34:47.250Z,7.58
2019-03-29T19:39:54.657Z,7.12
2019-03-29T19:45:02.184Z,7.00
2019-03-29T19:50:10.382Z,7.12
2019-03-29T19:55:19.148Z,7.65
2019-03-29T20:00:39.257Z,8.60
2019-03-29T20:05:46.713Z,9.18
2019-03-29T20:10:54.326Z,9.33
2019-03-29T20:16:01.850Z,10.72
2019-03-29T20:21:09.118Z,10.40
2019-03-29T20:26:17.542Z,10.20
2019-03-29T20:31:24.906Z,10.78
2019-03-29T20:36:32.380Z,10.85
2019-03-29T20:41:39.724Z,10.60
2019-03-29T20:46:47.210Z,11.78
2019-03-29T20:51:54.640Z,12.70
2019-03-29T20:57:02.139Z,12.75
2019-03-29T21:02:09.549Z,13.55
2019-03-29T21:07:16.905Z,15.32
2019-03-29T21:12:24.263Z,16.85
2019-03-29T21:17:31.645Z,15.05
2019-03-29T21:22:39.799Z,15.98
2019-03-29T21:27:47.265Z,14.75
2019-03-29T21:32:54.757Z,18.92
2019-03-29T21:38:02.186Z,20.65
2019-03-29T21:43:09.543Z,20.25
2019-03-29T21:48:28.609Z,16.60
2019-03-29T21:53:27.681Z,20.62
2019-03-29T21:58:35.256Z,22.10
2019-03-29T22:03:43.678Z,19.65
2019-03-29T22:08:51.049Z,19.75
2019-03-29T22:13:58.424Z,18.60
2019-03-29T22:19:05.683Z,19.92
2019-03-29T22:24:13.035Z,19.82
2019-03-29T22:29:20.366Z,19.40
2019-03-29T22:34:27.967Z,20.35
2019-03-29T22:39:35.319Z,19.12
2019-03-29T22:44:42.683Z,18.87
2019-03-29T22:49:49.871Z,15.75
2019-03-29T22:54:57.248Z,16.75
2019-03-29T23:00:07.110Z,14.85
2019-03-29T23:05:15.348Z,15.88
2019-03-29T23:10:22.782Z,14.50
2019-03-29T23:15:30.156Z,15.10
2019-03-29T23:20:37.656Z,14.43
2019-03-29T23:25:45.090Z,14.47
2019-03-29T23:30:52.369Z,12.73
2019-03-29T23:35:59.803Z,13.93
2019-03-29T23:41:07.192Z,12.20
2019-03-29T23:46:14.600Z,13.45
2019-03-29T23:51:22.030Z,12.88
2019-03-29T23:56:29.300Z,12.98
